Etusivu
METAR-TAF:

METAR-TAF

Lentoasemat :

Norrköping, Ruotsi

Leveyspiiri: 58-35N, Pituuspiiri: 016-09E, korkeus merenpinnasta: 34 m

Tämänhetkinen sää

Tämä raportti tehtiin 38 minuuttia sitten, kello 04.20 UTC
Tuuli 7 kn lännestä
Lämpötila 10°C
Kosteus 76%
Ilmanpaine 1013 hPa
Näkyvyys 10 km tai enemmän

METAR: ESSP 230420Z AUTO 26007KT 9999 OVC088/// 10/06 Q1013

Aika: 06:58 (04:58 UTC)

Sääennuste

Tämä raportti tehtiin 28 minuuttia sitten, kello 04.30 UTC
Ennuste voimassa 23. päivästä klo 05 UTC - 23. päivään klo 12 UTC
Tuuli 10 kn lännestä/luoteesta
Näkyvyys 10 km tai enemmän
ei pilviä alle 1500 m:ssä eikä cumulonimbus-pilviä
Tulossa
23. päivästä klo 10 UTC - 23. päivään klo 12 UTC
Tuuli 8 kn pohjoisesta/koillisesta

TAF: ESSP 230430Z 2305/2312 30010KT CAVOK BECMG 2310/2312 02008KT

Säähavainnot ja -ennusteet yli 4000 lentoasemalta (METAR- ja TAF-raportit).

Käytössä olevat sääasemat on merkitty karttaan keltaisilla ja punaisilla pisteillä.

Aseta hiiri pisteen päälle nähdäksesi sääaseman nimen.

Klikkaa sitten nähdäksesi säähavainnot ja -ennusteet.

Kartan vaihtaminen: klikkaa mustalla rastilla varustettuja vihreitä pisteitä, niin voit zoomata sisään; viivalla varustettua vihreää pistettä, niin voit zoomata ulos tai vihreitä nuolia, niin pääset viereisille kartoille.


METAR-TAF: